Etusivu
METAR-TAF:

METAR-TAF

Lentoasemat :

Kiel, Saksa

Leveyspiiri: 54-23N, Pituuspiiri: 010-10E, korkeus merenpinnasta: 31 m

Tämänhetkinen sää

Tämä raportti tehtiin 30 minuuttia sitten, kello 12.50 UTC
Tuuli 5 kn eri suunnista
Lämpötila 19°C
Kosteus 60%
Ilmanpaine 1014 hPa
Näkyvyys 10 km tai enemmän
ei pilviä alle 1500 m:ssä eikä cumulonimbus-pilviä

METAR: EDHK 181250Z VRB05KT CAVOK 19/11 Q1014

Aika: 15:20 (13:20 UTC)

Sääennuste

Tämä raportti tehtiin 2 tuntia ja 20 minuuttia sitten, kello 11.00 UTC
Ennuste voimassa 18. päivästä klo 12 UTC - 18. päivään klo 19 UTC
Tuuli 4 kn lännestä
Näkyvyys 10 km tai enemmän
Muutamia pilviä 3500 ft:n korkeudessa
Tulossa
18. päivästä klo 12 UTC - 18. päivään klo 15 UTC
Tuuli 5 kn pohjoisesta/koillisesta

TAF: EDHK 181100Z 1812/1819 27004KT 9999 FEW035 BECMG 1812/1815 03005KT

Säähavainnot ja -ennusteet yli 4000 lentoasemalta (METAR- ja TAF-raportit).

Käytössä olevat sääasemat on merkitty karttaan keltaisilla ja punaisilla pisteillä.

Aseta hiiri pisteen päälle nähdäksesi sääaseman nimen.

Klikkaa sitten nähdäksesi säähavainnot ja -ennusteet.

Kartan vaihtaminen: klikkaa mustalla rastilla varustettuja vihreitä pisteitä, niin voit zoomata sisään; viivalla varustettua vihreää pistettä, niin voit zoomata ulos tai vihreitä nuolia, niin pääset viereisille kartoille.


METAR-TAF: